George, North Carolina
Current Conditions -  °F | °C
As of 3:15 PM on Monday 24 Nov 2014 (Local Time) from KASJ Reporting Station
Broken Clouds Broken Clouds  
Wind Chill: 70°   Ceiling: 7000
Heat Index: 70°   Visibility: 10mi
Dew Point: 64°   Wind: 7mph
Humidity: 80%   Direction: 190°S
Pressure: 29.8"   Gusts: NA
Location:  36.3077°N, 77.185°W
Report Text: KASJ 242015Z AUTO 19006KT 10SM BKN070 BKN090 BKN110 21/18 A2980 RMK AO2 T02120177
Loading
Personal Weather Stations






























Interactive Weather Map New forecast layout! Learn more

10-Day Weather Forecast

Advertisements
Track Severe Weather on mobile